createdAt,value
2018-02-09T00:00:25.040Z,29.15
2018-02-09T00:01:25.024Z,29.16
2018-02-09T00:02:25.011Z,29.18
2018-02-09T00:03:24.990Z,29.28
2018-02-09T00:04:24.969Z,29.15
2018-02-09T00:05:24.949Z,29.25
2018-02-09T00:06:24.936Z,29.2
2018-02-09T00:07:24.915Z,29.16
2018-02-09T00:08:24.899Z,29.26
2018-02-09T00:09:24.881Z,29.18
2018-02-09T00:10:24.870Z,29.19
2018-02-09T00:11:24.847Z,29.19
2018-02-09T00:12:24.830Z,29.26
2018-02-09T00:13:24.824Z,29.16
2018-02-09T00:14:24.546Z,29.22
2018-02-09T00:15:24.528Z,29.18
2018-02-09T00:16:24.762Z,29.25
2018-02-09T00:17:24.495Z,29.22
2018-02-09T00:18:24.732Z,29.26
2018-02-09T00:19:24.712Z,29.25
2018-02-09T00:20:24.696Z,29.18
2018-02-09T00:21:24.677Z,29.19
2018-02-09T00:22:24.677Z,29.15
2018-02-09T00:23:24.647Z,29.18
2018-02-09T00:24:24.377Z,29.18
2018-02-09T00:25:24.109Z,29.19
2018-02-09T00:26:24.593Z,29.19
2018-02-09T00:27:24.584Z,29.16
2018-02-09T00:28:24.563Z,29.19
2018-02-09T00:29:24.542Z,29.15
2018-02-09T00:30:24.275Z,29.22
2018-02-09T00:31:24.257Z,29.23
2018-02-09T00:32:24.241Z,29.2
2018-02-09T00:33:24.229Z,29.18
2018-02-09T00:34:24.206Z,29.18
2018-02-09T00:35:24.190Z,29.13
2018-02-09T00:36:24.175Z,29.25
2018-02-09T00:37:24.156Z,29.25
2018-02-09T00:38:24.389Z,29.22
2018-02-09T00:39:23.871Z,29.15
2018-02-09T00:40:24.105Z,29.18
2018-02-09T00:41:24.338Z,29.19
2018-02-09T00:42:24.070Z,29.18
2018-02-09T00:43:24.053Z,29.28
2018-02-09T00:44:24.288Z,29.2
2018-02-09T00:45:23.769Z,29.22
2018-02-09T00:46:24.258Z,29.31
2018-02-09T00:47:23.994Z,29.16
2018-02-09T00:48:24.220Z,29.2
2018-02-09T00:49:23.951Z,29.18
2018-02-09T00:50:23.684Z,29.18
2018-02-09T00:51:24.168Z,29.25
2018-02-09T00:52:23.901Z,29.19
2018-02-09T00:53:23.884Z,29.25
2018-02-09T00:54:24.118Z,29.16
2018-02-09T00:55:24.100Z,29.16
2018-02-09T00:56:23.831Z,29.15
2018-02-09T00:57:24.065Z,29.26
2018-02-09T00:58:24.055Z,29.19
2018-02-09T00:59:24.034Z,29.16
2018-02-09T01:00:23.764Z,29.18
2018-02-09T01:01:24.001Z,29.19
2018-02-09T01:02:23.733Z,29.19
2018-02-09T01:03:23.964Z,29.18
2018-02-09T01:04:23.960Z,29.28
2018-02-09T01:05:23.684Z,29.18
2018-02-09T01:06:23.672Z,29.19
2018-02-09T01:07:23.897Z,29.16
2018-02-09T01:08:23.628Z,29.13
2018-02-09T01:09:23.361Z,29.22
2018-02-09T01:10:23.597Z,29.23
2018-02-09T01:11:23.827Z,29.19
2018-02-09T01:12:23.811Z,29.16
2018-02-09T01:13:23.551Z,29.13
2018-02-09T01:14:23.784Z,29.19
2018-02-09T01:15:23.780Z,29.15
2018-02-09T01:16:23.747Z,29.18
2018-02-09T01:17:23.728Z,29.16
2018-02-09T01:18:23.716Z,29.15
2018-02-09T01:19:23.692Z,29.15
2018-02-09T01:20:23.681Z,29.18
2018-02-09T01:21:23.409Z,29.16
2018-02-09T01:22:23.648Z,29.18
2018-02-09T01:23:23.630Z,29.18
2018-02-09T01:24:23.607Z,29.22
2018-02-09T01:25:23.599Z,29.19
2018-02-09T01:26:23.573Z,29.2
2018-02-09T01:27:23.560Z,29.16
2018-02-09T01:28:23.539Z,29.16
2018-02-09T01:29:23.273Z,29.18
2018-02-09T01:30:23.507Z,29.16
2018-02-09T01:31:23.491Z,29.25
2018-02-09T01:32:23.473Z,29.18
2018-02-09T01:33:23.206Z,29.19
2018-02-09T01:34:23.187Z,29.25
2018-02-09T01:35:23.425Z,29.16
2018-02-09T01:36:23.451Z,29.19
2018-02-09T01:37:23.386Z,29.15
2018-02-09T01:38:23.143Z,29.16
2018-02-09T01:39:23.103Z,29.18
2018-02-09T01:40:22.834Z,29.25
2018-02-09T01:41:23.318Z,29.22
2018-02-09T01:42:23.306Z,29.28
2018-02-09T01:43:23.285Z,29.18
2018-02-09T01:44:23.270Z,29.19
2018-02-09T01:45:23.251Z,29.19
2018-02-09T01:46:22.984Z,29.22
2018-02-09T01:47:22.966Z,29.2
2018-02-09T01:48:23.211Z,29.19
2018-02-09T01:49:23.182Z,29.16
2018-02-09T01:50:23.166Z,29.16
2018-02-09T01:51:22.900Z,29.16
2018-02-09T01:52:23.132Z,29.28
2018-02-09T01:53:23.114Z,29.26
2018-02-09T01:54:22.848Z,29.19
2018-02-09T01:55:23.079Z,29.18
2018-02-09T01:56:23.068Z,29.2
2018-02-09T01:57:22.798Z,29.25
2018-02-09T01:58:23.035Z,29.16
2018-02-09T01:59:23.136Z,29.23
2018-02-09T02:00:22.745Z,29.19
2018-02-09T02:01:22.732Z,29.18
2018-02-09T02:02:22.775Z,29.15
2018-02-09T02:03:22.694Z,29.18
2018-02-09T02:04:22.927Z,29.28
2018-02-09T02:05:22.661Z,29.18
2018-02-09T02:06:22.894Z,29.18
2018-02-09T02:07:22.627Z,29.16
2018-02-09T02:08:22.866Z,29.18
2018-02-09T02:09:22.842Z,29.19
2018-02-09T02:10:22.575Z,29.18
2018-02-09T02:11:22.561Z,29.19
2018-02-09T02:12:22.552Z,29.26
2018-02-09T02:13:22.784Z,29.18
2018-02-09T02:14:22.762Z,29.18
2018-02-09T02:15:22.742Z,29.19
2018-02-09T02:16:22.731Z,29.19
2018-02-09T02:17:22.706Z,29.15
2018-02-09T02:18:22.690Z,29.2
2018-02-09T02:19:22.712Z,29.18
2018-02-09T02:20:22.656Z,29.28
2018-02-09T02:21:22.640Z,29.18
2018-02-09T02:22:22.621Z,29.18
2018-02-09T02:23:22.104Z,29.16
2018-02-09T02:24:22.587Z,29.18
2018-02-09T02:25:22.322Z,29.25
2018-02-09T02:26:22.306Z,29.22
2018-02-09T02:27:22.287Z,29.11
2018-02-09T02:28:22.270Z,29.29
2018-02-09T02:29:22.002Z,29.19
2018-02-09T02:30:22.489Z,29.16
2018-02-09T02:31:22.475Z,29.22
2018-02-09T02:32:22.454Z,29.28
2018-02-09T02:33:22.249Z,29.26
2018-02-09T02:34:22.423Z,29.13
2018-02-09T02:35:22.150Z,29.25
2018-02-09T02:36:22.390Z,29.18
2018-02-09T02:37:22.370Z,29.19
2018-02-09T02:38:22.363Z,29.15
2018-02-09T02:39:22.339Z,29.19
2018-02-09T02:40:22.317Z,29.15
2018-02-09T02:41:22.302Z,29.2
2018-02-09T02:42:22.282Z,29.16
2018-02-09T02:43:22.267Z,29.16
2018-02-09T02:44:22.250Z,29.15
2018-02-09T02:45:22.243Z,29.19
2018-02-09T02:46:22.217Z,29.25
2018-02-09T02:47:21.948Z,29.19
2018-02-09T02:48:22.183Z,29.28
2018-02-09T02:49:22.171Z,29.18
2018-02-09T02:50:21.899Z,29.25
2018-02-09T02:51:22.134Z,29.19
2018-02-09T02:52:22.114Z,29.18
2018-02-09T02:53:22.103Z,29.13
2018-02-09T02:54:22.081Z,29.15
2018-02-09T02:55:22.085Z,29.16
2018-02-09T02:56:22.045Z,29.18
2018-02-09T02:57:22.030Z,29.19
2018-02-09T02:58:22.019Z,29.19
2018-02-09T02:59:21.744Z,29.16
2018-02-09T03:00:21.982Z,29.26
2018-02-09T03:01:21.965Z,29.22
2018-02-09T03:02:21.692Z,29.22
2018-02-09T03:03:21.931Z,29.18
2018-02-09T03:04:21.658Z,29.18
2018-02-09T03:05:21.890Z,29.22
2018-02-09T03:06:21.879Z,29.2
2018-02-09T03:07:21.857Z,29.18
2018-02-09T03:08:21.841Z,29.31
2018-02-09T03:09:21.574Z,29.16
2018-02-09T03:10:21.557Z,29.15
2018-02-09T03:11:21.790Z,29.19
2018-02-09T03:12:21.773Z,29.16
2018-02-09T03:13:21.757Z,29.25
2018-02-09T03:14:21.741Z,29.19
2018-02-09T03:15:21.721Z,29.23
2018-02-09T03:16:21.706Z,29.19
2018-02-09T03:17:21.440Z,29.19
2018-02-09T03:18:21.673Z,29.25
2018-02-09T03:19:21.652Z,29.16
2018-02-09T03:20:21.638Z,29.18
2018-02-09T03:21:21.624Z,29.2
2018-02-09T03:22:21.601Z,29.19
2018-02-09T03:23:21.335Z,29.2
2018-02-09T03:24:21.567Z,29.22
2018-02-09T03:25:21.301Z,29.23
2018-02-09T03:26:21.536Z,29.16
2018-02-09T03:27:21.540Z,29.29
2018-02-09T03:28:21.519Z,29.19
2018-02-09T03:29:21.485Z,29.18
2018-02-09T03:30:21.496Z,29.16
2018-02-09T03:31:21.459Z,29.18
2018-02-09T03:32:21.465Z,29.22
2018-02-09T03:33:21.416Z,29.16
2018-02-09T03:34:21.422Z,29.25
2018-02-09T03:35:21.138Z,29.25
2018-02-09T03:36:21.367Z,29.23
2018-02-09T03:37:21.348Z,29.16
2018-02-09T03:38:21.334Z,29.19
2018-02-09T03:39:21.321Z,29.19
2018-02-09T03:40:21.046Z,29.18
2018-02-09T03:41:21.281Z,29.16
2018-02-09T03:42:21.011Z,29.2
2018-02-09T03:43:21.251Z,29.15
2018-02-09T03:44:21.231Z,29.2
2018-02-09T03:45:21.210Z,29.08
2018-02-09T03:46:21.194Z,29.18
2018-02-09T03:47:21.181Z,29.16
2018-02-09T03:48:21.161Z,29.18
2018-02-09T03:49:21.144Z,29.15
2018-02-09T03:50:20.877Z,29.15
2018-02-09T03:51:20.611Z,29.13
2018-02-09T03:52:21.096Z,29.2
2018-02-09T03:53:21.076Z,29.16
2018-02-09T03:54:20.856Z,29.11
2018-02-09T03:55:21.042Z,29.1
2018-02-09T03:56:20.783Z,29.13
2018-02-09T03:57:20.759Z,29.11
2018-02-09T03:58:20.998Z,29.15
2018-02-09T03:59:20.973Z,29.16
2018-02-09T04:00:20.955Z,29.19
2018-02-09T04:01:20.939Z,29.18
2018-02-09T04:02:20.922Z,29.13
2018-02-09T04:03:20.905Z,29.13
2018-02-09T04:04:20.888Z,29.13
2018-02-09T04:05:20.621Z,29.19
2018-02-09T04:06:20.853Z,29.19
2018-02-09T04:07:20.586Z,29.13
2018-02-09T04:08:20.825Z,29.2
2018-02-09T04:09:20.553Z,29.16
2018-02-09T04:10:20.790Z,29.25
2018-02-09T04:11:20.775Z,29.18
2018-02-09T04:12:20.753Z,29.1
2018-02-09T04:13:20.735Z,29.15
2018-02-09T04:14:20.720Z,29.16
2018-02-09T04:15:20.459Z,29.15
2018-02-09T04:16:20.439Z,29.22
2018-02-09T04:17:20.424Z,29.18
2018-02-09T04:18:20.652Z,29.19
2018-02-09T04:19:20.635Z,29.23
2018-02-09T04:20:20.367Z,29.16
2018-02-09T04:21:20.600Z,29.25
2018-02-09T04:22:20.583Z,29.18
2018-02-09T04:23:20.575Z,29.16
2018-02-09T04:24:20.304Z,29.15
2018-02-09T04:25:20.531Z,29.2
2018-02-09T04:26:20.515Z,29.22
2018-02-09T04:27:20.497Z,29.23
2018-02-09T04:28:20.487Z,29.22
2018-02-09T04:29:20.464Z,29.23
2018-02-09T04:30:20.196Z,29.25
2018-02-09T04:31:19.934Z,29.19
2018-02-09T04:32:20.665Z,29.23
2018-02-09T04:33:20.397Z,29.23
2018-02-09T04:34:20.129Z,29.26
2018-02-09T04:35:20.378Z,29.23
2018-02-09T04:36:20.349Z,29.28
2018-02-09T04:37:20.327Z,29.25
2018-02-09T04:38:20.313Z,29.25
2018-02-09T04:39:20.045Z,29.2
2018-02-09T04:40:20.279Z,29.16
2018-02-09T04:41:20.261Z,29.19
2018-02-09T04:42:20.252Z,29.23
2018-02-09T04:43:20.227Z,29.22
2018-02-09T04:44:20.211Z,29.23
2018-02-09T04:45:19.943Z,29.26
2018-02-09T04:46:20.174Z,29.26
2018-02-09T04:47:20.160Z,29.23
2018-02-09T04:48:20.180Z,29.25
2018-02-09T04:49:20.124Z,29.22
2018-02-09T04:50:19.857Z,29.23
2018-02-09T04:51:19.594Z,29.23
2018-02-09T04:52:20.085Z,29.23
2018-02-09T04:53:19.806Z,29.28
2018-02-09T04:54:20.041Z,29.2
2018-02-09T04:55:20.024Z,29.18
2018-02-09T04:56:19.757Z,29.25
2018-02-09T04:57:19.738Z,29.19
2018-02-09T04:58:19.980Z,29.18
2018-02-09T04:59:19.706Z,29.2
2018-02-09T05:00:19.687Z,29.22
2018-02-09T05:01:19.924Z,29.19
2018-02-09T05:02:19.659Z,29.15
2018-02-09T05:03:19.888Z,29.19
2018-02-09T05:04:19.870Z,29.22
2018-02-09T05:05:19.854Z,29.18
2018-02-09T05:06:19.585Z,29.25
2018-02-09T05:07:19.569Z,29.16
2018-02-09T05:08:19.800Z,29.25
2018-02-09T05:09:19.786Z,29.25
2018-02-09T05:10:19.770Z,29.22
2018-02-09T05:11:19.759Z,29.15
2018-02-09T05:12:19.736Z,29.26
2018-02-09T05:13:19.718Z,29.2
2018-02-09T05:14:19.704Z,29.22
2018-02-09T05:15:19.683Z,29.18
2018-02-09T05:16:19.417Z,29.23
2018-02-09T05:17:19.729Z,29.2
2018-02-09T05:18:19.632Z,29.23
2018-02-09T05:19:19.619Z,29.23
2018-02-09T05:20:19.597Z,29.2
2018-02-09T05:21:19.604Z,29.2
2018-02-09T05:22:19.564Z,29.16
2018-02-09T05:23:19.296Z,29.18
2018-02-09T05:24:19.534Z,29.26
2018-02-09T05:25:19.517Z,29.22
2018-02-09T05:26:19.247Z,29.16
2018-02-09T05:27:19.503Z,29.15
2018-02-09T05:28:19.466Z,29.28
2018-02-09T05:29:19.445Z,29.26
2018-02-09T05:30:19.180Z,29.2
2018-02-09T05:31:19.413Z,29.25
2018-02-09T05:32:19.401Z,29.25
2018-02-09T05:33:19.377Z,29.19
2018-02-09T05:34:19.363Z,29.23
2018-02-09T05:35:19.095Z,29.2
2018-02-09T05:36:19.340Z,29.22
2018-02-09T05:37:19.060Z,29.23
2018-02-09T05:38:19.295Z,29.25
2018-02-09T05:39:19.025Z,29.18
2018-02-09T05:40:19.007Z,29.25
2018-02-09T05:41:19.302Z,29.23
2018-02-09T05:42:19.230Z,29.23
2018-02-09T05:43:19.207Z,29.22
2018-02-09T05:44:18.944Z,29.29
2018-02-09T05:45:18.921Z,29.26
2018-02-09T05:46:18.906Z,29.26
2018-02-09T05:47:18.903Z,29.33
2018-02-09T05:48:18.870Z,29.28
2018-02-09T05:49:19.108Z,29.29
2018-02-09T05:50:18.926Z,29.25
2018-02-09T05:51:19.384Z,29.22
2018-02-09T05:52:19.707Z,29.22
2018-02-09T05:53:19.086Z,29.2
2018-02-09T05:54:18.849Z,29.25
2018-02-09T05:55:19.068Z,29.2
2018-02-09T05:56:18.987Z,29.26
2018-02-09T05:57:19.673Z,29.22
2018-02-09T05:58:19.070Z,29.26
2018-02-09T05:59:18.997Z,29.26
2018-02-09T06:00:18.917Z,29.29
2018-02-09T06:01:19.259Z,29.23
2018-02-09T06:02:18.885Z,29.29
2018-02-09T06:03:18.915Z,29.26
2018-02-09T06:04:18.871Z,29.29
2018-02-09T06:05:19.676Z,29.22
2018-02-09T06:06:18.953Z,29.25
2018-02-09T06:07:20.324Z,29.23
2018-02-09T06:08:19.150Z,29.22
2018-02-09T06:09:19.202Z,29.25
2018-02-09T06:10:19.104Z,29.16
2018-02-09T06:11:19.480Z,29.26
2018-02-09T06:12:19.457Z,29.18
2018-02-09T06:13:19.023Z,29.22
2018-02-09T06:14:18.792Z,29.16
2018-02-09T06:15:18.704Z,29.15
2018-02-09T06:16:18.700Z,29.18
2018-02-09T06:17:18.630Z,29.1
2018-02-09T06:18:18.630Z,29.18
2018-02-09T06:19:18.610Z,29.16
2018-02-09T06:20:18.327Z,29.08
2018-02-09T06:21:18.310Z,29.08
2018-02-09T06:22:18.622Z,29.18
2018-02-09T06:23:18.527Z,29.18
2018-02-09T06:24:18.513Z,29.11
2018-02-09T06:25:18.496Z,29.11
2018-02-09T06:26:18.535Z,29.11
2018-02-09T06:27:18.517Z,29.07
2018-02-09T06:28:18.239Z,29.07
2018-02-09T06:29:19.001Z,29.16
2018-02-09T06:30:18.202Z,29.08
2018-02-09T06:31:18.392Z,29.13
2018-02-09T06:32:18.675Z,29.2
2018-02-09T06:33:18.365Z,29.18
2018-02-09T06:34:18.093Z,29.16
2018-02-09T06:35:18.659Z,29.18
2018-02-09T06:36:18.332Z,29.06
2018-02-09T06:37:18.285Z,29.07
2018-02-09T06:38:18.268Z,29.15
2018-02-09T06:39:18.638Z,29.16
2018-02-09T06:40:19.391Z,29.23
2018-02-09T06:41:18.217Z,29.11
2018-02-09T06:42:18.200Z,29.07
2018-02-09T06:43:17.932Z,29.07
2018-02-09T06:44:17.916Z,29.15
2018-02-09T06:45:18.161Z,29.06
2018-02-09T06:46:18.134Z,29.16
2018-02-09T06:47:18.115Z,29.08
2018-02-09T06:48:18.098Z,29.08
2018-02-09T06:49:18.087Z,29.08
2018-02-09T06:50:17.813Z,29.15
2018-02-09T06:51:18.107Z,29.15
2018-02-09T06:52:18.034Z,29.19
2018-02-09T06:53:17.772Z,29.06
2018-02-09T06:54:17.997Z,29.19
2018-02-09T06:55:17.984Z,29.15
2018-02-09T06:56:18.488Z,29.1
2018-02-09T06:57:18.042Z,29.08
2018-02-09T06:58:18.042Z,29.11
2018-02-09T06:59:18.489Z,29.16
2018-02-09T07:00:17.983Z,29.07
2018-02-09T07:01:17.992Z,29.08
2018-02-09T07:02:17.721Z,29.15
2018-02-09T07:03:17.961Z,29.08
2018-02-09T07:04:18.349Z,29.11
2018-02-09T07:05:18.576Z,29.08
2018-02-09T07:06:18.232Z,29.13
2018-02-09T07:07:17.887Z,29.08
2018-02-09T07:08:18.293Z,29.01
2018-02-09T07:09:18.131Z,29.03
2018-02-09T07:10:17.979Z,28.93
2018-02-09T07:11:17.833Z,29.15
2018-02-09T07:12:18.471Z,29.07
2018-02-09T07:13:18.233Z,29.03
2018-02-09T07:14:17.808Z,29.1
2018-02-09T07:15:17.950Z,29.11
2018-02-09T07:16:17.744Z,29.18
2018-02-09T07:17:19.044Z,29.11
2018-02-09T07:18:17.928Z,29.11
2018-02-09T07:19:18.228Z,29.18
2018-02-09T07:20:17.887Z,29.15
2018-02-09T07:21:18.110Z,29.15
2018-02-09T07:22:18.024Z,29.16
2018-02-09T07:23:18.407Z,29.18
2018-02-09T07:24:18.777Z,29.16
2018-02-09T07:25:17.549Z,29.15
2018-02-09T07:26:17.463Z,29.18
2018-02-09T07:27:17.447Z,29.15
2018-02-09T07:28:17.413Z,29.26
2018-02-09T07:29:17.405Z,29.19
2018-02-09T07:30:17.382Z,29.15
2018-02-09T07:31:17.367Z,29.25
2018-02-09T07:32:17.720Z,29.2
2018-02-09T07:33:17.342Z,29.18
2018-02-09T07:34:17.065Z,29.16
2018-02-09T07:35:17.295Z,29.22
2018-02-09T07:36:17.295Z,29.15
2018-02-09T07:37:17.271Z,29.25
2018-02-09T07:38:16.992Z,29.23
2018-02-09T07:39:16.984Z,29.25
2018-02-09T07:40:17.215Z,29.23
2018-02-09T07:41:17.207Z,29.18
2018-02-09T07:42:17.212Z,29.25
2018-02-09T07:43:16.949Z,29.25
2018-02-09T07:44:16.962Z,29.23
2018-02-09T07:45:16.882Z,29.2
2018-02-09T07:46:17.663Z,29.28
2018-02-09T07:47:16.921Z,29.19
2018-02-09T07:48:16.898Z,29.29
2018-02-09T07:49:17.360Z,29.33
2018-02-09T07:50:17.138Z,29.22
2018-02-09T07:51:17.034Z,29.25
2018-02-09T07:52:17.081Z,29.34
2018-02-09T07:53:16.799Z,29.29
2018-02-09T07:54:16.974Z,29.25
2018-02-09T07:55:17.159Z,29.35
2018-02-09T07:56:16.685Z,29.33
2018-02-09T07:57:16.670Z,29.28
2018-02-09T07:58:16.909Z,29.34
2018-02-09T07:59:16.899Z,29.33
2018-02-09T08:00:16.871Z,29.22
2018-02-09T08:01:17.172Z,29.25
2018-02-09T08:02:16.585Z,29.33
2018-02-09T08:03:16.840Z,29.19
2018-02-09T08:04:16.800Z,29.23
2018-02-09T08:05:16.282Z,29.2
2018-02-09T08:06:16.597Z,29.2
2018-02-09T08:07:17.134Z,29.16
2018-02-09T08:08:16.732Z,29.11
2018-02-09T08:09:16.528Z,29.15
2018-02-09T08:10:16.762Z,29.19
2018-02-09T08:11:16.430Z,29.25
2018-02-09T08:12:16.664Z,29.15
2018-02-09T08:13:16.646Z,29.26
2018-02-09T08:14:16.633Z,29.2
2018-02-09T08:15:16.689Z,29.16
2018-02-09T08:16:16.369Z,29.2
2018-02-09T08:17:16.617Z,29.19
2018-02-09T08:18:17.074Z,29.2
2018-02-09T08:19:16.547Z,29.2
2018-02-09T08:20:16.527Z,29.16
2018-02-09T08:21:16.288Z,29.18
2018-02-09T08:22:16.718Z,29.2
2018-02-09T08:23:16.528Z,29.15
2018-02-09T08:24:16.270Z,29.19
2018-02-09T08:25:16.493Z,29.18
2018-02-09T08:26:16.174Z,29.22
2018-02-09T08:27:16.158Z,29.23
2018-02-09T08:28:16.398Z,29.25
2018-02-09T08:29:16.131Z,29.2
2018-02-09T08:30:16.402Z,29.19
2018-02-09T08:31:16.669Z,29.18
2018-02-09T08:32:16.331Z,29.18
2018-02-09T08:33:16.310Z,29.16
2018-02-09T08:34:16.037Z,29.13
2018-02-09T08:35:16.302Z,29.2
2018-02-09T08:36:16.259Z,29.16
2018-02-09T08:37:16.541Z,29.16
2018-02-09T08:38:16.463Z,29.13
2018-02-09T08:39:16.305Z,29.19
2018-02-09T08:40:16.230Z,29.15
2018-02-09T08:41:16.267Z,29.25
2018-02-09T08:42:16.420Z,29.16
2018-02-09T08:43:16.134Z,29.16
2018-02-09T08:44:16.136Z,29.16
2018-02-09T08:45:16.102Z,29.23
2018-02-09T08:46:16.093Z,29.19
2018-02-09T08:47:15.880Z,29.23
2018-02-09T08:48:16.067Z,29.19
2018-02-09T08:49:16.056Z,29.2
2018-02-09T08:50:15.769Z,29.23
2018-02-09T08:51:16.535Z,29.23
2018-02-09T08:52:15.745Z,29.22
2018-02-09T08:53:15.963Z,29.25
2018-02-09T08:54:15.976Z,29.26
2018-02-09T08:55:15.748Z,29.29
2018-02-09T08:56:15.722Z,29.35
2018-02-09T08:57:16.051Z,29.28
2018-02-09T08:58:16.458Z,29.31
2018-02-09T08:59:16.649Z,29.29
2018-02-09T09:00:16.880Z,29.35
2018-02-09T09:01:16.177Z,29.31
2018-02-09T09:02:15.873Z,29.37
2018-02-09T09:03:17.014Z,29.31
2018-02-09T09:04:16.084Z,29.35
2018-02-09T09:05:15.612Z,29.35
2018-02-09T09:06:15.803Z,29.35
2018-02-09T09:07:15.840Z,29.35
2018-02-09T09:08:15.727Z,29.35
2018-02-09T09:09:15.772Z,29.37
2018-02-09T09:10:16.305Z,29.4
2018-02-09T09:11:15.455Z,29.35
2018-02-09T09:12:15.489Z,29.4
2018-02-09T09:13:15.702Z,29.44
2018-02-09T09:14:16.189Z,29.4
2018-02-09T09:15:15.945Z,29.38
2018-02-09T09:16:15.935Z,29.4
2018-02-09T09:17:15.371Z,29.41
2018-02-09T09:18:15.658Z,29.4
2018-02-09T09:19:15.876Z,29.38
2018-02-09T09:20:16.109Z,29.4
2018-02-09T09:21:15.791Z,29.38
2018-02-09T09:22:15.816Z,29.37
2018-02-09T09:23:15.577Z,29.37
2018-02-09T09:24:16.332Z,29.38
2018-02-09T09:25:16.010Z,29.38
2018-02-09T09:26:15.755Z,29.41
2018-02-09T09:27:15.732Z,29.28
2018-02-09T09:28:15.520Z,29.38
2018-02-09T09:29:15.426Z,29.38
2018-02-09T09:30:15.430Z,29.33
2018-02-09T09:31:16.403Z,29.4
2018-02-09T09:32:15.111Z,29.4
2018-02-09T09:33:15.906Z,29.41
2018-02-09T09:34:15.675Z,29.43
2018-02-09T09:35:15.839Z,29.44
2018-02-09T09:36:15.585Z,29.41
2018-02-09T09:37:15.832Z,29.41
2018-02-09T09:38:15.525Z,29.41
2018-02-09T09:39:15.762Z,29.4
2018-02-09T09:40:15.235Z,29.41
2018-02-09T09:41:15.279Z,29.45
2018-02-09T09:42:14.947Z,29.37
2018-02-09T09:43:15.208Z,29.37
2018-02-09T09:44:15.434Z,29.34
2018-02-09T09:45:15.443Z,29.34
2018-02-09T09:46:15.424Z,29.38
